sensor_id;sensor_type;location;lat;lon;timestamp;temperature;humidity
21508;DHT22;10915;54.352;9.074;2023-09-30T00:00:26;14.40;99.90
21508;DHT22;10915;54.352;9.074;2023-09-30T00:02:52;14.40;99.90
21508;DHT22;10915;54.352;9.074;2023-09-30T00:05:17;14.40;99.90
21508;DHT22;10915;54.352;9.074;2023-09-30T00:07:45;14.40;99.90
21508;DHT22;10915;54.352;9.074;2023-09-30T00:10:11;14.40;99.90
21508;DHT22;10915;54.352;9.074;2023-09-30T00:12:37;14.40;99.90
21508;DHT22;10915;54.352;9.074;2023-09-30T00:15:04;14.40;99.90
21508;DHT22;10915;54.352;9.074;2023-09-30T00:17:30;14.40;99.90
21508;DHT22;10915;54.352;9.074;2023-09-30T00:19:55;14.50;99.90
21508;DHT22;10915;54.352;9.074;2023-09-30T00:22:21;14.50;99.90
21508;DHT22;10915;54.352;9.074;2023-09-30T00:24:47;14.50;99.90
21508;DHT22;10915;54.352;9.074;2023-09-30T00:27:12;14.50;99.90
21508;DHT22;10915;54.352;9.074;2023-09-30T00:29:38;14.50;99.90
21508;DHT22;10915;54.352;9.074;2023-09-30T00:32:04;14.50;99.90
21508;DHT22;10915;54.352;9.074;2023-09-30T00:34:33;14.50;99.90
21508;DHT22;10915;54.352;9.074;2023-09-30T00:36:58;14.60;99.90
21508;DHT22;10915;54.352;9.074;2023-09-30T00:39:24;14.60;99.90
21508;DHT22;10915;54.352;9.074;2023-09-30T00:41:52;14.60;99.90
21508;DHT22;10915;54.352;9.074;2023-09-30T00:44:19;14.70;99.90
21508;DHT22;10915;54.352;9.074;2023-09-30T00:46:45;14.70;99.90
21508;DHT22;10915;54.352;9.074;2023-09-30T00:49:13;14.70;99.90
21508;DHT22;10915;54.352;9.074;2023-09-30T00:51:39;14.70;99.90
21508;DHT22;10915;54.352;9.074;2023-09-30T00:54:05;14.70;99.90
21508;DHT22;10915;54.352;9.074;2023-09-30T00:56:32;14.70;99.90
21508;DHT22;10915;54.352;9.074;2023-09-30T00:58:59;14.70;99.90
21508;DHT22;10915;54.352;9.074;2023-09-30T01:01:25;14.80;99.90
21508;DHT22;10915;54.352;9.074;2023-09-30T01:03:51;14.80;99.90
21508;DHT22;10915;54.352;9.074;2023-09-30T01:06:17;14.80;99.90
21508;DHT22;10915;54.352;9.074;2023-09-30T01:08:43;14.80;99.90
21508;DHT22;10915;54.352;9.074;2023-09-30T01:11:09;14.80;99.90
21508;DHT22;10915;54.352;9.074;2023-09-30T01:13:35;14.90;99.90
21508;DHT22;10915;54.352;9.074;2023-09-30T01:16:08;14.90;99.90
21508;DHT22;10915;54.352;9.074;2023-09-30T01:18:35;14.90;99.90
21508;DHT22;10915;54.352;9.074;2023-09-30T01:21:06;14.90;99.90
21508;DHT22;10915;54.352;9.074;2023-09-30T01:23:32;14.80;99.90
21508;DHT22;10915;54.352;9.074;2023-09-30T01:26:06;14.80;99.90
21508;DHT22;10915;54.352;9.074;2023-09-30T01:28:32;14.80;99.90
21508;DHT22;10915;54.352;9.074;2023-09-30T01:30:58;14.80;99.90
21508;DHT22;10915;54.352;9.074;2023-09-30T01:33:24;14.80;99.90
21508;DHT22;10915;54.352;9.074;2023-09-30T01:35:50;14.80;99.90
21508;DHT22;10915;54.352;9.074;2023-09-30T01:38:15;14.80;99.90
21508;DHT22;10915;54.352;9.074;2023-09-30T01:40:41;14.80;99.90
21508;DHT22;10915;54.352;9.074;2023-09-30T01:43:07;14.80;99.90
21508;DHT22;10915;54.352;9.074;2023-09-30T01:45:33;14.80;99.90
21508;DHT22;10915;54.352;9.074;2023-09-30T01:48:00;14.80;99.90
21508;DHT22;10915;54.352;9.074;2023-09-30T01:50:26;14.70;99.90
21508;DHT22;10915;54.352;9.074;2023-09-30T01:52:51;14.80;99.90
21508;DHT22;10915;54.352;9.074;2023-09-30T01:55:17;14.80;99.90
21508;DHT22;10915;54.352;9.074;2023-09-30T01:57:43;14.80;99.90
21508;DHT22;10915;54.352;9.074;2023-09-30T02:00:08;14.80;99.90
21508;DHT22;10915;54.352;9.074;2023-09-30T02:02:35;14.80;99.90
21508;DHT22;10915;54.352;9.074;2023-09-30T02:05:02;14.80;99.90
21508;DHT22;10915;54.352;9.074;2023-09-30T02:07:28;14.80;99.90
21508;DHT22;10915;54.352;9.074;2023-09-30T02:09:54;14.80;99.90
21508;DHT22;10915;54.352;9.074;2023-09-30T02:12:20;14.80;99.90
21508;DHT22;10915;54.352;9.074;2023-09-30T02:14:46;14.80;99.90
21508;DHT22;10915;54.352;9.074;2023-09-30T02:17:12;14.80;99.90
21508;DHT22;10915;54.352;9.074;2023-09-30T02:19:39;14.80;99.90
21508;DHT22;10915;54.352;9.074;2023-09-30T02:22:08;14.80;99.90
21508;DHT22;10915;54.352;9.074;2023-09-30T02:24:34;14.70;99.90
21508;DHT22;10915;54.352;9.074;2023-09-30T02:27:00;14.70;99.90
21508;DHT22;10915;54.352;9.074;2023-09-30T02:29:25;14.70;99.90
21508;DHT22;10915;54.352;9.074;2023-09-30T02:31:51;14.70;99.90
21508;DHT22;10915;54.352;9.074;2023-09-30T02:34:17;14.70;99.90
21508;DHT22;10915;54.352;9.074;2023-09-30T02:36:43;14.70;99.90
21508;DHT22;10915;54.352;9.074;2023-09-30T02:39:09;14.70;99.90
21508;DHT22;10915;54.352;9.074;2023-09-30T02:41:35;14.70;99.90
21508;DHT22;10915;54.352;9.074;2023-09-30T02:44:03;14.60;99.90
21508;DHT22;10915;54.352;9.074;2023-09-30T02:46:28;14.60;99.90
21508;DHT22;10915;54.352;9.074;2023-09-30T02:48:54;14.50;99.90
21508;DHT22;10915;54.352;9.074;2023-09-30T02:51:20;14.50;99.90
21508;DHT22;10915;54.352;9.074;2023-09-30T02:53:45;14.50;99.90
21508;DHT22;10915;54.352;9.074;2023-09-30T02:56:13;14.50;99.90
21508;DHT22;10915;54.352;9.074;2023-09-30T02:58:39;14.40;99.90
21508;DHT22;10915;54.352;9.074;2023-09-30T03:01:06;14.40;99.90
21508;DHT22;10915;54.352;9.074;2023-09-30T03:03:32;14.40;99.90
21508;DHT22;10915;54.352;9.074;2023-09-30T03:05:59;14.50;99.90
21508;DHT22;10915;54.352;9.074;2023-09-30T03:08:26;14.50;99.90
21508;DHT22;10915;54.352;9.074;2023-09-30T03:10:52;14.60;99.90
21508;DHT22;10915;54.352;9.074;2023-09-30T03:13:18;14.60;99.90
21508;DHT22;10915;54.352;9.074;2023-09-30T03:15:47;14.60;99.90
21508;DHT22;10915;54.352;9.074;2023-09-30T03:18:15;14.50;99.90
21508;DHT22;10915;54.352;9.074;2023-09-30T03:20:42;14.50;99.90
21508;DHT22;10915;54.352;9.074;2023-09-30T03:23:09;14.50;99.90
21508;DHT22;10915;54.352;9.074;2023-09-30T03:25:35;14.50;99.90
21508;DHT22;10915;54.352;9.074;2023-09-30T03:28:01;14.50;99.90
21508;DHT22;10915;54.352;9.074;2023-09-30T03:30:26;14.40;99.90
21508;DHT22;10915;54.352;9.074;2023-09-30T03:32:52;14.40;99.90
21508;DHT22;10915;54.352;9.074;2023-09-30T03:35:18;14.40;99.90
21508;DHT22;10915;54.352;9.074;2023-09-30T03:37:44;14.40;99.90
21508;DHT22;10915;54.352;9.074;2023-09-30T03:40:11;14.40;99.90
21508;DHT22;10915;54.352;9.074;2023-09-30T03:42:44;14.30;99.90
21508;DHT22;10915;54.352;9.074;2023-09-30T03:45:13;14.30;99.90
21508;DHT22;10915;54.352;9.074;2023-09-30T03:47:43;14.30;99.90
21508;DHT22;10915;54.352;9.074;2023-09-30T03:50:09;14.30;99.90
21508;DHT22;10915;54.352;9.074;2023-09-30T03:52:40;14.30;99.90
21508;DHT22;10915;54.352;9.074;2023-09-30T03:55:12;14.30;99.90
21508;DHT22;10915;54.352;9.074;2023-09-30T03:57:52;14.20;99.90
21508;DHT22;10915;54.352;9.074;2023-09-30T04:00:17;14.30;99.90
21508;DHT22;10915;54.352;9.074;2023-09-30T04:02:47;14.20;99.90
21508;DHT22;10915;54.352;9.074;2023-09-30T04:05:22;14.20;99.90
21508;DHT22;10915;54.352;9.074;2023-09-30T04:08:05;14.20;99.90
21508;DHT22;10915;54.352;9.074;2023-09-30T04:10:31;14.20;99.90
21508;DHT22;10915;54.352;9.074;2023-09-30T04:13:00;14.20;99.90
21508;DHT22;10915;54.352;9.074;2023-09-30T04:15:26;14.20;99.90
21508;DHT22;10915;54.352;9.074;2023-09-30T04:17:51;14.20;99.90
21508;DHT22;10915;54.352;9.074;2023-09-30T04:20:18;14.20;99.90
21508;DHT22;10915;54.352;9.074;2023-09-30T04:22:48;14.10;99.90
21508;DHT22;10915;54.352;9.074;2023-09-30T04:25:15;14.10;99.90
21508;DHT22;10915;54.352;9.074;2023-09-30T04:27:45;14.10;99.90
21508;DHT22;10915;54.352;9.074;2023-09-30T04:30:13;14.10;99.90
21508;DHT22;10915;54.352;9.074;2023-09-30T04:32:40;14.10;99.90
21508;DHT22;10915;54.352;9.074;2023-09-30T04:35:06;14.10;99.90
21508;DHT22;10915;54.352;9.074;2023-09-30T04:37:36;14.10;99.90
21508;DHT22;10915;54.352;9.074;2023-09-30T04:40:03;14.10;99.90
21508;DHT22;10915;54.352;9.074;2023-09-30T04:42:33;14.10;99.90
21508;DHT22;10915;54.352;9.074;2023-09-30T04:44:59;14.10;99.90
21508;DHT22;10915;54.352;9.074;2023-09-30T04:47:25;14.10;99.90
21508;DHT22;10915;54.352;9.074;2023-09-30T04:49:51;14.10;99.90
21508;DHT22;10915;54.352;9.074;2023-09-30T04:52:17;14.10;99.90
21508;DHT22;10915;54.352;9.074;2023-09-30T04:54:42;14.10;99.90
21508;DHT22;10915;54.352;9.074;2023-09-30T04:57:10;14.10;99.90
21508;DHT22;10915;54.352;9.074;2023-09-30T04:59:35;14.10;99.90
21508;DHT22;10915;54.352;9.074;2023-09-30T05:02:01;14.10;99.90
21508;DHT22;10915;54.352;9.074;2023-09-30T05:04:27;14.10;99.90
21508;DHT22;10915;54.352;9.074;2023-09-30T05:06:52;14.10;99.90
21508;DHT22;10915;54.352;9.074;2023-09-30T05:09:18;14.10;99.90
21508;DHT22;10915;54.352;9.074;2023-09-30T05:11:44;14.10;99.90
21508;DHT22;10915;54.352;9.074;2023-09-30T05:14:09;14.10;99.90
21508;DHT22;10915;54.352;9.074;2023-09-30T05:16:35;14.10;99.90
21508;DHT22;10915;54.352;9.074;2023-09-30T05:19:03;14.10;99.90
21508;DHT22;10915;54.352;9.074;2023-09-30T05:21:30;14.10;99.90
21508;DHT22;10915;54.352;9.074;2023-09-30T05:23:55;14.00;99.90
21508;DHT22;10915;54.352;9.074;2023-09-30T05:26:22;14.00;99.90
21508;DHT22;10915;54.352;9.074;2023-09-30T05:28:47;14.00;99.90
21508;DHT22;10915;54.352;9.074;2023-09-30T05:31:13;14.00;99.90
21508;DHT22;10915;54.352;9.074;2023-09-30T05:33:38;14.10;99.90
21508;DHT22;10915;54.352;9.074;2023-09-30T05:36:04;14.10;99.90
21508;DHT22;10915;54.352;9.074;2023-09-30T05:38:30;14.10;99.90
21508;DHT22;10915;54.352;9.074;2023-09-30T05:40:57;14.10;99.90
21508;DHT22;10915;54.352;9.074;2023-09-30T05:43:24;14.10;99.90
21508;DHT22;10915;54.352;9.074;2023-09-30T05:45:51;14.10;99.90
21508;DHT22;10915;54.352;9.074;2023-09-30T05:48:20;14.20;99.90
21508;DHT22;10915;54.352;9.074;2023-09-30T05:50:46;14.20;99.90
21508;DHT22;10915;54.352;9.074;2023-09-30T05:53:12;14.20;99.90
21508;DHT22;10915;54.352;9.074;2023-09-30T05:55:39;14.30;99.90
21508;DHT22;10915;54.352;9.074;2023-09-30T05:58:14;14.30;99.90
21508;DHT22;10915;54.352;9.074;2023-09-30T06:00:42;14.30;99.90
21508;DHT22;10915;54.352;9.074;2023-09-30T06:03:08;14.40;99.90
21508;DHT22;10915;54.352;9.074;2023-09-30T06:05:39;14.40;99.90
21508;DHT22;10915;54.352;9.074;2023-09-30T06:08:07;14.40;99.90
21508;DHT22;10915;54.352;9.074;2023-09-30T06:10:34;14.40;99.90
21508;DHT22;10915;54.352;9.074;2023-09-30T06:13:01;14.40;99.90
21508;DHT22;10915;54.352;9.074;2023-09-30T06:15:27;14.40;99.90
21508;DHT22;10915;54.352;9.074;2023-09-30T06:17:54;14.50;99.90
21508;DHT22;10915;54.352;9.074;2023-09-30T06:20:21;14.50;99.90
21508;DHT22;10915;54.352;9.074;2023-09-30T06:22:48;14.50;99.90
21508;DHT22;10915;54.352;9.074;2023-09-30T06:25:17;14.60;99.90
21508;DHT22;10915;54.352;9.074;2023-09-30T06:27:44;14.60;99.90
21508;DHT22;10915;54.352;9.074;2023-09-30T06:30:11;14.60;99.90
21508;DHT22;10915;54.352;9.074;2023-09-30T06:32:36;14.70;99.90
21508;DHT22;10915;54.352;9.074;2023-09-30T06:35:03;14.70;99.90
21508;DHT22;10915;54.352;9.074;2023-09-30T06:37:29;14.80;99.90
21508;DHT22;10915;54.352;9.074;2023-09-30T06:39:55;14.80;99.90
21508;DHT22;10915;54.352;9.074;2023-09-30T06:42:21;14.90;99.90
21508;DHT22;10915;54.352;9.074;2023-09-30T06:44:47;14.90;99.90
21508;DHT22;10915;54.352;9.074;2023-09-30T06:47:12;14.90;99.90
21508;DHT22;10915;54.352;9.074;2023-09-30T06:49:38;14.90;99.90
21508;DHT22;10915;54.352;9.074;2023-09-30T06:52:05;15.00;99.90
21508;DHT22;10915;54.352;9.074;2023-09-30T06:54:31;15.00;99.90
21508;DHT22;10915;54.352;9.074;2023-09-30T06:56:57;15.00;99.90
21508;DHT22;10915;54.352;9.074;2023-09-30T06:59:23;15.00;99.90
21508;DHT22;10915;54.352;9.074;2023-09-30T07:01:50;15.00;99.90
21508;DHT22;10915;54.352;9.074;2023-09-30T07:04:16;15.00;99.90
21508;DHT22;10915;54.352;9.074;2023-09-30T07:06:42;15.10;99.90
21508;DHT22;10915;54.352;9.074;2023-09-30T07:09:08;15.20;99.90
21508;DHT22;10915;54.352;9.074;2023-09-30T07:11:35;15.20;99.90
21508;DHT22;10915;54.352;9.074;2023-09-30T07:14:02;15.30;99.90
21508;DHT22;10915;54.352;9.074;2023-09-30T07:16:27;15.30;99.90
21508;DHT22;10915;54.352;9.074;2023-09-30T07:18:53;15.50;99.90
21508;DHT22;10915;54.352;9.074;2023-09-30T07:21:19;15.60;99.90
21508;DHT22;10915;54.352;9.074;2023-09-30T07:23:45;15.70;99.90
21508;DHT22;10915;54.352;9.074;2023-09-30T07:26:10;15.80;99.90
21508;DHT22;10915;54.352;9.074;2023-09-30T07:28:36;15.90;99.90
21508;DHT22;10915;54.352;9.074;2023-09-30T07:31:02;16.00;99.90
21508;DHT22;10915;54.352;9.074;2023-09-30T07:33:28;16.00;99.90
21508;DHT22;10915;54.352;9.074;2023-09-30T07:35:55;16.20;99.90
21508;DHT22;10915;54.352;9.074;2023-09-30T07:38:21;16.30;99.90
21508;DHT22;10915;54.352;9.074;2023-09-30T07:40:47;16.50;99.90
21508;DHT22;10915;54.352;9.074;2023-09-30T07:43:14;16.80;99.90
21508;DHT22;10915;54.352;9.074;2023-09-30T07:45:40;17.00;99.90
21508;DHT22;10915;54.352;9.074;2023-09-30T07:48:07;17.00;99.90
21508;DHT22;10915;54.352;9.074;2023-09-30T07:50:35;17.10;99.90
21508;DHT22;10915;54.352;9.074;2023-09-30T07:53:00;17.20;99.90
21508;DHT22;10915;54.352;9.074;2023-09-30T07:55:26;17.20;99.90
21508;DHT22;10915;54.352;9.074;2023-09-30T07:57:52;17.30;99.90
21508;DHT22;10915;54.352;9.074;2023-09-30T08:00:18;17.30;99.90
21508;DHT22;10915;54.352;9.074;2023-09-30T08:02:47;17.40;99.90
21508;DHT22;10915;54.352;9.074;2023-09-30T08:05:13;17.40;99.90
21508;DHT22;10915;54.352;9.074;2023-09-30T08:07:39;17.40;99.90
21508;DHT22;10915;54.352;9.074;2023-09-30T08:10:05;17.50;99.90
21508;DHT22;10915;54.352;9.074;2023-09-30T08:12:32;17.50;99.90
21508;DHT22;10915;54.352;9.074;2023-09-30T08:14:58;17.50;99.90
21508;DHT22;10915;54.352;9.074;2023-09-30T08:17:23;17.50;99.90
21508;DHT22;10915;54.352;9.074;2023-09-30T08:19:49;17.60;99.90
21508;DHT22;10915;54.352;9.074;2023-09-30T08:22:15;17.70;99.90
21508;DHT22;10915;54.352;9.074;2023-09-30T08:24:40;17.70;99.90
21508;DHT22;10915;54.352;9.074;2023-09-30T08:27:06;17.70;99.90
21508;DHT22;10915;54.352;9.074;2023-09-30T08:29:35;17.70;99.90
21508;DHT22;10915;54.352;9.074;2023-09-30T08:32:04;17.70;99.90
21508;DHT22;10915;54.352;9.074;2023-09-30T08:34:30;17.70;99.90
21508;DHT22;10915;54.352;9.074;2023-09-30T08:36:55;17.60;99.90
21508;DHT22;10915;54.352;9.074;2023-09-30T08:39:22;17.60;99.90
21508;DHT22;10915;54.352;9.074;2023-09-30T08:41:50;17.60;99.90
21508;DHT22;10915;54.352;9.074;2023-09-30T08:44:16;17.60;99.90
21508;DHT22;10915;54.352;9.074;2023-09-30T08:46:42;17.60;99.90
21508;DHT22;10915;54.352;9.074;2023-09-30T08:49:09;17.60;99.90
21508;DHT22;10915;54.352;9.074;2023-09-30T08:51:36;17.50;99.90
21508;DHT22;10915;54.352;9.074;2023-09-30T08:54:02;17.50;99.90
21508;DHT22;10915;54.352;9.074;2023-09-30T08:56:30;17.50;99.90
21508;DHT22;10915;54.352;9.074;2023-09-30T08:58:59;17.50;99.90
21508;DHT22;10915;54.352;9.074;2023-09-30T09:01:27;17.40;99.90
21508;DHT22;10915;54.352;9.074;2023-09-30T09:03:53;17.40;99.90
21508;DHT22;10915;54.352;9.074;2023-09-30T09:06:23;17.40;99.90
21508;DHT22;10915;54.352;9.074;2023-09-30T09:08:49;17.40;99.90
21508;DHT22;10915;54.352;9.074;2023-09-30T09:11:15;17.50;99.90
21508;DHT22;10915;54.352;9.074;2023-09-30T09:13:52;17.60;99.90
21508;DHT22;10915;54.352;9.074;2023-09-30T09:16:22;17.70;99.90
21508;DHT22;10915;54.352;9.074;2023-09-30T09:18:49;17.90;99.90
21508;DHT22;10915;54.352;9.074;2023-09-30T09:21:17;17.90;99.90
21508;DHT22;10915;54.352;9.074;2023-09-30T09:23:45;17.90;99.90
21508;DHT22;10915;54.352;9.074;2023-09-30T09:26:12;18.00;99.90
21508;DHT22;10915;54.352;9.074;2023-09-30T09:28:39;18.00;99.90
21508;DHT22;10915;54.352;9.074;2023-09-30T09:31:21;18.10;99.90
21508;DHT22;10915;54.352;9.074;2023-09-30T09:33:48;18.20;99.90
21508;DHT22;10915;54.352;9.074;2023-09-30T09:36:15;18.20;99.90
21508;DHT22;10915;54.352;9.074;2023-09-30T09:38:49;18.30;99.90
21508;DHT22;10915;54.352;9.074;2023-09-30T09:41:16;18.30;99.90
21508;DHT22;10915;54.352;9.074;2023-09-30T09:43:42;18.40;99.90
21508;DHT22;10915;54.352;9.074;2023-09-30T09:46:09;18.40;99.90
21508;DHT22;10915;54.352;9.074;2023-09-30T09:48:36;18.40;99.90
21508;DHT22;10915;54.352;9.074;2023-09-30T09:51:03;18.40;99.90
21508;DHT22;10915;54.352;9.074;2023-09-30T09:53:30;18.40;99.90
21508;DHT22;10915;54.352;9.074;2023-09-30T09:56:00;18.60;99.90
21508;DHT22;10915;54.352;9.074;2023-09-30T09:58:27;18.60;99.90
21508;DHT22;10915;54.352;9.074;2023-09-30T10:00:53;18.60;99.90
21508;DHT22;10915;54.352;9.074;2023-09-30T10:03:19;18.50;99.90
21508;DHT22;10915;54.352;9.074;2023-09-30T10:05:45;18.50;99.90
21508;DHT22;10915;54.352;9.074;2023-09-30T10:08:15;18.60;99.90
21508;DHT22;10915;54.352;9.074;2023-09-30T10:10:44;18.60;99.90
21508;DHT22;10915;54.352;9.074;2023-09-30T10:21:37;19.10;99.90
21508;DHT22;10915;54.352;9.074;2023-09-30T10:27:50;19.40;99.90
21508;DHT22;10915;54.352;9.074;2023-09-30T10:40:49;20.30;99.90
21508;DHT22;10915;54.352;9.074;2023-09-30T10:43:30;20.50;99.90
21508;DHT22;10915;54.352;9.074;2023-09-30T10:45:56;20.80;99.90
21508;DHT22;10915;54.352;9.074;2023-09-30T10:49:32;20.90;99.90
21508;DHT22;10915;54.352;9.074;2023-09-30T10:51:59;20.90;99.90
21508;DHT22;10915;54.352;9.074;2023-09-30T10:54:32;20.90;99.90
21508;DHT22;10915;54.352;9.074;2023-09-30T10:56:59;20.70;99.90
21508;DHT22;10915;54.352;9.074;2023-09-30T10:59:27;20.50;99.90
21508;DHT22;10915;54.352;9.074;2023-09-30T11:01:53;20.30;99.90
21508;DHT22;10915;54.352;9.074;2023-09-30T11:04:19;20.00;99.90
21508;DHT22;10915;54.352;9.074;2023-09-30T11:06:46;19.80;99.90
21508;DHT22;10915;54.352;9.074;2023-09-30T11:09:17;19.70;99.90
21508;DHT22;10915;54.352;9.074;2023-09-30T11:11:45;19.70;99.90
21508;DHT22;10915;54.352;9.074;2023-09-30T11:14:31;19.80;99.90
21508;DHT22;10915;54.352;9.074;2023-09-30T11:17:03;19.80;99.90
21508;DHT22;10915;54.352;9.074;2023-09-30T11:19:47;19.70;99.90
21508;DHT22;10915;54.352;9.074;2023-09-30T11:22:14;19.70;99.90
21508;DHT22;10915;54.352;9.074;2023-09-30T11:24:40;19.70;99.90
21508;DHT22;10915;54.352;9.074;2023-09-30T11:27:07;19.80;99.90
21508;DHT22;10915;54.352;9.074;2023-09-30T11:29:32;19.90;99.90
21508;DHT22;10915;54.352;9.074;2023-09-30T11:31:58;20.00;99.90
21508;DHT22;10915;54.352;9.074;2023-09-30T11:34:36;20.10;99.90
21508;DHT22;10915;54.352;9.074;2023-09-30T11:37:03;20.20;99.90
21508;DHT22;10915;54.352;9.074;2023-09-30T11:39:29;20.10;99.90
21508;DHT22;10915;54.352;9.074;2023-09-30T11:41:56;19.90;99.90
21508;DHT22;10915;54.352;9.074;2023-09-30T11:44:23;19.80;99.90
21508;DHT22;10915;54.352;9.074;2023-09-30T11:47:02;19.70;99.90
21508;DHT22;10915;54.352;9.074;2023-09-30T11:49:39;19.70;99.90
21508;DHT22;10915;54.352;9.074;2023-09-30T11:54:40;19.60;99.90
21508;DHT22;10915;54.352;9.074;2023-09-30T11:57:10;19.60;99.90
21508;DHT22;10915;54.352;9.074;2023-09-30T11:59:37;19.60;99.90
21508;DHT22;10915;54.352;9.074;2023-09-30T12:02:04;19.60;99.90
21508;DHT22;10915;54.352;9.074;2023-09-30T12:04:31;19.70;99.90
21508;DHT22;10915;54.352;9.074;2023-09-30T12:06:57;19.60;99.90
21508;DHT22;10915;54.352;9.074;2023-09-30T12:09:23;19.70;99.90
21508;DHT22;10915;54.352;9.074;2023-09-30T12:11:51;19.70;99.90
21508;DHT22;10915;54.352;9.074;2023-09-30T12:14:17;19.70;99.90
21508;DHT22;10915;54.352;9.074;2023-09-30T12:16:43;19.70;99.90
21508;DHT22;10915;54.352;9.074;2023-09-30T12:19:16;19.60;99.90
21508;DHT22;10915;54.352;9.074;2023-09-30T12:21:44;19.50;99.90
21508;DHT22;10915;54.352;9.074;2023-09-30T12:24:12;19.40;99.90
21508;DHT22;10915;54.352;9.074;2023-09-30T12:26:44;19.40;99.90
21508;DHT22;10915;54.352;9.074;2023-09-30T12:29:23;19.40;99.90
21508;DHT22;10915;54.352;9.074;2023-09-30T12:31:51;19.50;99.90
21508;DHT22;10915;54.352;9.074;2023-09-30T12:34:17;19.60;99.90
21508;DHT22;10915;54.352;9.074;2023-09-30T12:36:43;19.80;99.90
21508;DHT22;10915;54.352;9.074;2023-09-30T12:39:09;19.90;99.90
21508;DHT22;10915;54.352;9.074;2023-09-30T12:41:42;19.90;99.90
21508;DHT22;10915;54.352;9.074;2023-09-30T12:44:08;19.90;99.90
21508;DHT22;10915;54.352;9.074;2023-09-30T12:46:34;19.80;99.90
21508;DHT22;10915;54.352;9.074;2023-09-30T12:49:03;19.80;99.90
21508;DHT22;10915;54.352;9.074;2023-09-30T12:51:29;19.70;99.90
21508;DHT22;10915;54.352;9.074;2023-09-30T12:53:54;19.50;99.90
21508;DHT22;10915;54.352;9.074;2023-09-30T12:56:20;19.40;99.90
21508;DHT22;10915;54.352;9.074;2023-09-30T12:58:47;19.30;99.90
21508;DHT22;10915;54.352;9.074;2023-09-30T13:01:12;19.20;99.90
21508;DHT22;10915;54.352;9.074;2023-09-30T13:03:39;19.10;99.90
21508;DHT22;10915;54.352;9.074;2023-09-30T13:06:05;19.10;99.90
21508;DHT22;10915;54.352;9.074;2023-09-30T13:08:30;19.20;99.90
21508;DHT22;10915;54.352;9.074;2023-09-30T13:11:00;19.40;99.90
21508;DHT22;10915;54.352;9.074;2023-09-30T13:13:28;19.50;99.90
21508;DHT22;10915;54.352;9.074;2023-09-30T13:15:54;19.60;99.90
21508;DHT22;10915;54.352;9.074;2023-09-30T13:18:19;19.50;99.90
21508;DHT22;10915;54.352;9.074;2023-09-30T13:20:45;19.50;99.90
21508;DHT22;10915;54.352;9.074;2023-09-30T13:23:11;19.40;99.90
21508;DHT22;10915;54.352;9.074;2023-09-30T13:25:36;19.40;99.90
21508;DHT22;10915;54.352;9.074;2023-09-30T13:28:02;19.50;99.90
21508;DHT22;10915;54.352;9.074;2023-09-30T13:30:27;19.40;99.90
21508;DHT22;10915;54.352;9.074;2023-09-30T13:32:53;19.40;99.90
21508;DHT22;10915;54.352;9.074;2023-09-30T13:35:19;19.40;99.90
21508;DHT22;10915;54.352;9.074;2023-09-30T13:37:44;19.20;99.90
21508;DHT22;10915;54.352;9.074;2023-09-30T13:40:10;19.20;99.90
21508;DHT22;10915;54.352;9.074;2023-09-30T13:42:38;19.00;99.90
21508;DHT22;10915;54.352;9.074;2023-09-30T13:45:04;18.90;99.90
21508;DHT22;10915;54.352;9.074;2023-09-30T13:47:32;18.90;99.90
21508;DHT22;10915;54.352;9.074;2023-09-30T13:49:58;18.80;99.90
21508;DHT22;10915;54.352;9.074;2023-09-30T13:52:23;18.70;99.90
21508;DHT22;10915;54.352;9.074;2023-09-30T13:54:49;18.80;99.90
21508;DHT22;10915;54.352;9.074;2023-09-30T13:57:15;18.80;99.90
21508;DHT22;10915;54.352;9.074;2023-09-30T13:59:40;18.80;99.90
21508;DHT22;10915;54.352;9.074;2023-09-30T14:02:07;18.70;99.90
21508;DHT22;10915;54.352;9.074;2023-09-30T14:04:33;18.70;99.90
21508;DHT22;10915;54.352;9.074;2023-09-30T14:07:01;18.70;99.90
21508;DHT22;10915;54.352;9.074;2023-09-30T14:09:28;18.70;99.90
21508;DHT22;10915;54.352;9.074;2023-09-30T14:11:54;18.70;99.90
21508;DHT22;10915;54.352;9.074;2023-09-30T14:14:19;18.60;99.90
21508;DHT22;10915;54.352;9.074;2023-09-30T14:16:45;18.60;99.90
21508;DHT22;10915;54.352;9.074;2023-09-30T14:19:12;18.50;99.90
21508;DHT22;10915;54.352;9.074;2023-09-30T14:21:42;18.50;99.90
21508;DHT22;10915;54.352;9.074;2023-09-30T14:24:08;18.40;99.90
21508;DHT22;10915;54.352;9.074;2023-09-30T14:26:34;18.30;99.90
21508;DHT22;10915;54.352;9.074;2023-09-30T14:28:59;18.30;99.90
21508;DHT22;10915;54.352;9.074;2023-09-30T14:31:25;18.30;99.90
21508;DHT22;10915;54.352;9.074;2023-09-30T14:33:51;18.30;99.90
21508;DHT22;10915;54.352;9.074;2023-09-30T14:36:17;18.30;99.90
21508;DHT22;10915;54.352;9.074;2023-09-30T14:38:44;18.20;99.90
21508;DHT22;10915;54.352;9.074;2023-09-30T14:41:13;18.20;99.90
21508;DHT22;10915;54.352;9.074;2023-09-30T14:43:39;18.20;99.90
21508;DHT22;10915;54.352;9.074;2023-09-30T14:46:05;18.20;99.90
21508;DHT22;10915;54.352;9.074;2023-09-30T14:48:30;18.20;99.90
21508;DHT22;10915;54.352;9.074;2023-09-30T14:50:56;18.10;99.90
21508;DHT22;10915;54.352;9.074;2023-09-30T14:53:22;18.10;99.90
21508;DHT22;10915;54.352;9.074;2023-09-30T14:55:48;18.20;99.90
21508;DHT22;10915;54.352;9.074;2023-09-30T14:58:14;18.20;99.90
21508;DHT22;10915;54.352;9.074;2023-09-30T15:00:39;18.20;99.90
21508;DHT22;10915;54.352;9.074;2023-09-30T15:03:05;18.20;99.90
21508;DHT22;10915;54.352;9.074;2023-09-30T15:05:32;18.20;99.90
21508;DHT22;10915;54.352;9.074;2023-09-30T15:07:57;18.30;99.90
21508;DHT22;10915;54.352;9.074;2023-09-30T15:10:25;18.30;99.90
21508;DHT22;10915;54.352;9.074;2023-09-30T15:12:50;18.30;99.90
21508;DHT22;10915;54.352;9.074;2023-09-30T15:15:16;18.30;99.90
21508;DHT22;10915;54.352;9.074;2023-09-30T15:17:42;18.30;99.90
21508;DHT22;10915;54.352;9.074;2023-09-30T15:20:08;18.30;99.90
21508;DHT22;10915;54.352;9.074;2023-09-30T15:22:34;18.20;99.90
21508;DHT22;10915;54.352;9.074;2023-09-30T15:25:00;18.30;99.90
21508;DHT22;10915;54.352;9.074;2023-09-30T15:27:25;18.30;99.90
21508;DHT22;10915;54.352;9.074;2023-09-30T15:29:51;18.20;99.90
21508;DHT22;10915;54.352;9.074;2023-09-30T15:32:16;18.20;99.90
21508;DHT22;10915;54.352;9.074;2023-09-30T15:34:42;18.20;99.90
21508;DHT22;10915;54.352;9.074;2023-09-30T15:37:09;18.20;99.90
21508;DHT22;10915;54.352;9.074;2023-09-30T15:39:39;18.20;99.90
21508;DHT22;10915;54.352;9.074;2023-09-30T15:42:07;18.10;99.90
21508;DHT22;10915;54.352;9.074;2023-09-30T15:44:37;18.10;99.90
21508;DHT22;10915;54.352;9.074;2023-09-30T15:47:05;18.00;99.90
21508;DHT22;10915;54.352;9.074;2023-09-30T15:49:31;18.00;99.90
21508;DHT22;10915;54.352;9.074;2023-09-30T15:51:57;18.00;99.90
21508;DHT22;10915;54.352;9.074;2023-09-30T15:54:23;17.90;99.90